sensor_id;sensor_type;location;lat;lon;timestamp;temperature;humidity
23681;DHT22;62915;50.832;4.462;2023-02-11T00:00:54;7.70;99.90
23681;DHT22;62915;50.832;4.462;2023-02-11T00:03:19;7.60;99.90
23681;DHT22;62915;50.832;4.462;2023-02-11T00:05:45;7.50;99.90
23681;DHT22;62915;50.832;4.462;2023-02-11T00:08:11;7.50;99.90
23681;DHT22;62915;50.832;4.462;2023-02-11T00:10:41;7.50;99.90
23681;DHT22;62915;50.832;4.462;2023-02-11T00:13:07;7.50;99.90
23681;DHT22;62915;50.832;4.462;2023-02-11T00:15:32;7.60;99.90
23681;DHT22;62915;50.832;4.462;2023-02-11T00:17:58;7.50;99.90
23681;DHT22;62915;50.832;4.462;2023-02-11T00:20:24;7.60;99.90
23681;DHT22;62915;50.832;4.462;2023-02-11T00:22:49;7.50;99.90
23681;DHT22;62915;50.832;4.462;2023-02-11T00:25:15;7.50;99.90
23681;DHT22;62915;50.832;4.462;2023-02-11T00:27:40;7.40;99.90
23681;DHT22;62915;50.832;4.462;2023-02-11T00:30:06;7.50;99.90
23681;DHT22;62915;50.832;4.462;2023-02-11T00:32:32;7.40;99.90
23681;DHT22;62915;50.832;4.462;2023-02-11T00:34:58;7.30;99.90
23681;DHT22;62915;50.832;4.462;2023-02-11T00:37:24;7.30;99.90
23681;DHT22;62915;50.832;4.462;2023-02-11T00:39:50;7.20;99.90
23681;DHT22;62915;50.832;4.462;2023-02-11T00:42:15;7.20;99.90
23681;DHT22;62915;50.832;4.462;2023-02-11T00:44:41;7.10;99.90
23681;DHT22;62915;50.832;4.462;2023-02-11T00:47:07;7.20;99.90
23681;DHT22;62915;50.832;4.462;2023-02-11T00:49:33;7.30;99.90
23681;DHT22;62915;50.832;4.462;2023-02-11T00:51:58;7.30;99.90
23681;DHT22;62915;50.832;4.462;2023-02-11T00:54:24;7.30;99.90
23681;DHT22;62915;50.832;4.462;2023-02-11T00:56:50;7.40;99.90
23681;DHT22;62915;50.832;4.462;2023-02-11T00:59:15;7.40;99.90
23681;DHT22;62915;50.832;4.462;2023-02-11T01:01:41;7.40;99.90
23681;DHT22;62915;50.832;4.462;2023-02-11T01:04:07;7.30;99.90
23681;DHT22;62915;50.832;4.462;2023-02-11T01:06:32;7.30;99.90
23681;DHT22;62915;50.832;4.462;2023-02-11T01:08:58;7.20;99.90
23681;DHT22;62915;50.832;4.462;2023-02-11T01:11:24;7.20;99.90
23681;DHT22;62915;50.832;4.462;2023-02-11T01:13:49;7.30;99.90
23681;DHT22;62915;50.832;4.462;2023-02-11T01:16:16;7.10;99.90
23681;DHT22;62915;50.832;4.462;2023-02-11T01:18:42;7.10;99.90
23681;DHT22;62915;50.832;4.462;2023-02-11T01:21:09;7.20;99.90
23681;DHT22;62915;50.832;4.462;2023-02-11T01:23:34;7.10;99.90
23681;DHT22;62915;50.832;4.462;2023-02-11T01:26:00;7.10;99.90
23681;DHT22;62915;50.832;4.462;2023-02-11T01:28:28;7.30;99.90
23681;DHT22;62915;50.832;4.462;2023-02-11T01:30:54;7.40;99.90
23681;DHT22;62915;50.832;4.462;2023-02-11T01:33:20;7.30;99.90
23681;DHT22;62915;50.832;4.462;2023-02-11T01:35:46;7.40;99.90
23681;DHT22;62915;50.832;4.462;2023-02-11T01:38:25;7.40;99.90
23681;DHT22;62915;50.832;4.462;2023-02-11T01:40:57;7.30;99.90
23681;DHT22;62915;50.832;4.462;2023-02-11T01:43:24;7.30;99.90
23681;DHT22;62915;50.832;4.462;2023-02-11T01:46:05;7.30;99.90
23681;DHT22;62915;50.832;4.462;2023-02-11T01:48:44;7.20;99.90
23681;DHT22;62915;50.832;4.462;2023-02-11T01:51:25;7.20;99.90
23681;DHT22;62915;50.832;4.462;2023-02-11T01:53:52;7.20;99.90
23681;DHT22;62915;50.832;4.462;2023-02-11T01:56:40;7.30;99.90
23681;DHT22;62915;50.832;4.462;2023-02-11T02:02:51;7.40;99.90
23681;DHT22;62915;50.832;4.462;2023-02-11T02:10:29;7.30;99.90
23681;DHT22;62915;50.832;4.462;2023-02-11T02:12:56;7.20;99.90
23681;DHT22;62915;50.832;4.462;2023-02-11T02:15:32;7.20;99.90
23681;DHT22;62915;50.832;4.462;2023-02-11T02:18:28;7.30;99.90
23681;DHT22;62915;50.832;4.462;2023-02-11T02:26:18;7.30;99.90
23681;DHT22;62915;50.832;4.462;2023-02-11T02:29:19;7.40;99.90
23681;DHT22;62915;50.832;4.462;2023-02-11T02:32:18;7.30;99.90
23681;DHT22;62915;50.832;4.462;2023-02-11T02:34:52;7.30;99.90
23681;DHT22;62915;50.832;4.462;2023-02-11T02:38:16;7.30;99.90
23681;DHT22;62915;50.832;4.462;2023-02-11T02:40:24;7.50;99.90
23681;DHT22;62915;50.832;4.462;2023-02-11T02:42:54;7.50;99.90
23681;DHT22;62915;50.832;4.462;2023-02-11T02:45:19;7.30;99.90
23681;DHT22;62915;50.832;4.462;2023-02-11T02:47:45;7.50;99.90
23681;DHT22;62915;50.832;4.462;2023-02-11T02:50:14;7.40;99.90
23681;DHT22;62915;50.832;4.462;2023-02-11T02:52:51;7.40;99.90
23681;DHT22;62915;50.832;4.462;2023-02-11T02:58:17;7.70;99.90
23681;DHT22;62915;50.832;4.462;2023-02-11T03:00:58;7.70;99.90
23681;DHT22;62915;50.832;4.462;2023-02-11T03:03:53;7.60;99.90
23681;DHT22;62915;50.832;4.462;2023-02-11T03:09:13;7.60;99.90
23681;DHT22;62915;50.832;4.462;2023-02-11T03:11:40;7.60;99.90
23681;DHT22;62915;50.832;4.462;2023-02-11T03:14:10;7.60;99.90
23681;DHT22;62915;50.832;4.462;2023-02-11T03:16:37;7.60;99.90
23681;DHT22;62915;50.832;4.462;2023-02-11T03:19:21;7.70;99.90
23681;DHT22;62915;50.832;4.462;2023-02-11T03:21:50;7.60;99.90
23681;DHT22;62915;50.832;4.462;2023-02-11T03:24:22;7.70;99.90
23681;DHT22;62915;50.832;4.462;2023-02-11T03:26:52;7.70;99.90
23681;DHT22;62915;50.832;4.462;2023-02-11T03:29:35;7.60;99.90
23681;DHT22;62915;50.832;4.462;2023-02-11T03:32:15;7.60;99.90
23681;DHT22;62915;50.832;4.462;2023-02-11T03:34:58;7.60;99.90
23681;DHT22;62915;50.832;4.462;2023-02-11T03:37:47;7.70;99.90
23681;DHT22;62915;50.832;4.462;2023-02-11T03:40:19;7.80;99.90
23681;DHT22;62915;50.832;4.462;2023-02-11T03:42:53;7.70;99.90
23681;DHT22;62915;50.832;4.462;2023-02-11T03:45:22;7.60;99.90
23681;DHT22;62915;50.832;4.462;2023-02-11T03:47:53;7.50;99.90
23681;DHT22;62915;50.832;4.462;2023-02-11T03:50:20;7.60;99.90
23681;DHT22;62915;50.832;4.462;2023-02-11T03:52:48;7.60;99.90
23681;DHT22;62915;50.832;4.462;2023-02-11T03:55:18;7.70;99.90
23681;DHT22;62915;50.832;4.462;2023-02-11T03:57:46;7.80;99.90
23681;DHT22;62915;50.832;4.462;2023-02-11T04:00:12;7.70;99.90
23681;DHT22;62915;50.832;4.462;2023-02-11T04:02:39;7.70;99.90
23681;DHT22;62915;50.832;4.462;2023-02-11T04:05:06;7.70;99.90
23681;DHT22;62915;50.832;4.462;2023-02-11T04:07:32;7.70;99.90
23681;DHT22;62915;50.832;4.462;2023-02-11T04:09:59;7.80;99.90
23681;DHT22;62915;50.832;4.462;2023-02-11T04:12:24;7.80;99.90
23681;DHT22;62915;50.832;4.462;2023-02-11T04:14:50;7.80;99.90
23681;DHT22;62915;50.832;4.462;2023-02-11T04:17:16;7.80;99.90
23681;DHT22;62915;50.832;4.462;2023-02-11T04:19:41;7.70;99.90
23681;DHT22;62915;50.832;4.462;2023-02-11T04:22:07;7.80;99.90
23681;DHT22;62915;50.832;4.462;2023-02-11T04:24:33;7.80;99.90
23681;DHT22;62915;50.832;4.462;2023-02-11T04:26:59;7.70;99.90
23681;DHT22;62915;50.832;4.462;2023-02-11T04:29:25;7.60;99.90
23681;DHT22;62915;50.832;4.462;2023-02-11T04:31:51;7.70;99.90
23681;DHT22;62915;50.832;4.462;2023-02-11T04:34:17;7.70;99.90
23681;DHT22;62915;50.832;4.462;2023-02-11T04:36:43;7.80;99.90
23681;DHT22;62915;50.832;4.462;2023-02-11T04:39:08;7.80;99.90
23681;DHT22;62915;50.832;4.462;2023-02-11T04:41:34;7.90;99.90
23681;DHT22;62915;50.832;4.462;2023-02-11T04:44:00;7.80;99.90
23681;DHT22;62915;50.832;4.462;2023-02-11T04:46:25;7.80;99.90
23681;DHT22;62915;50.832;4.462;2023-02-11T04:48:51;7.80;99.90
23681;DHT22;62915;50.832;4.462;2023-02-11T04:51:17;7.80;99.90
23681;DHT22;62915;50.832;4.462;2023-02-11T04:53:43;7.90;99.90
23681;DHT22;62915;50.832;4.462;2023-02-11T04:56:08;7.90;99.90
23681;DHT22;62915;50.832;4.462;2023-02-11T04:58:34;7.90;99.90
23681;DHT22;62915;50.832;4.462;2023-02-11T05:01:07;8.00;99.90
23681;DHT22;62915;50.832;4.462;2023-02-11T05:03:33;8.00;99.90
23681;DHT22;62915;50.832;4.462;2023-02-11T05:05:59;8.00;99.90
23681;DHT22;62915;50.832;4.462;2023-02-11T05:08:25;8.10;99.90
23681;DHT22;62915;50.832;4.462;2023-02-11T05:10:51;8.00;99.90
23681;DHT22;62915;50.832;4.462;2023-02-11T05:13:16;7.90;99.90
23681;DHT22;62915;50.832;4.462;2023-02-11T05:15:42;7.90;99.90
23681;DHT22;62915;50.832;4.462;2023-02-11T05:18:08;7.90;99.90
23681;DHT22;62915;50.832;4.462;2023-02-11T05:20:36;7.80;99.90
23681;DHT22;62915;50.832;4.462;2023-02-11T05:23:02;7.80;99.90
23681;DHT22;62915;50.832;4.462;2023-02-11T05:25:27;7.80;99.90
23681;DHT22;62915;50.832;4.462;2023-02-11T05:27:53;7.90;99.90
23681;DHT22;62915;50.832;4.462;2023-02-11T05:30:19;7.90;99.90
23681;DHT22;62915;50.832;4.462;2023-02-11T05:32:44;7.80;99.90
23681;DHT22;62915;50.832;4.462;2023-02-11T05:35:10;7.80;99.90
23681;DHT22;62915;50.832;4.462;2023-02-11T05:37:36;7.90;99.90
23681;DHT22;62915;50.832;4.462;2023-02-11T05:40:01;7.70;99.90
23681;DHT22;62915;50.832;4.462;2023-02-11T05:42:27;7.60;99.90
23681;DHT22;62915;50.832;4.462;2023-02-11T05:44:53;7.80;99.90
23681;DHT22;62915;50.832;4.462;2023-02-11T05:47:19;7.70;99.90
23681;DHT22;62915;50.832;4.462;2023-02-11T05:49:45;7.80;99.90
23681;DHT22;62915;50.832;4.462;2023-02-11T05:52:10;7.70;99.90
23681;DHT22;62915;50.832;4.462;2023-02-11T05:54:36;7.70;99.90
23681;DHT22;62915;50.832;4.462;2023-02-11T05:57:02;7.60;99.90
23681;DHT22;62915;50.832;4.462;2023-02-11T05:59:28;7.70;99.90
23681;DHT22;62915;50.832;4.462;2023-02-11T06:01:53;7.70;99.90
23681;DHT22;62915;50.832;4.462;2023-02-11T06:04:19;7.70;99.90
23681;DHT22;62915;50.832;4.462;2023-02-11T06:06:45;7.70;99.90
23681;DHT22;62915;50.832;4.462;2023-02-11T06:09:11;7.80;99.90
23681;DHT22;62915;50.832;4.462;2023-02-11T06:11:37;7.70;99.90
23681;DHT22;62915;50.832;4.462;2023-02-11T06:14:03;7.80;99.90
23681;DHT22;62915;50.832;4.462;2023-02-11T06:16:28;7.70;99.90
23681;DHT22;62915;50.832;4.462;2023-02-11T06:18:54;7.80;99.90
23681;DHT22;62915;50.832;4.462;2023-02-11T06:21:20;7.70;99.90
23681;DHT22;62915;50.832;4.462;2023-02-11T06:23:46;7.80;99.90
23681;DHT22;62915;50.832;4.462;2023-02-11T06:26:19;7.90;99.90
23681;DHT22;62915;50.832;4.462;2023-02-11T06:28:45;7.80;99.90
23681;DHT22;62915;50.832;4.462;2023-02-11T06:31:13;7.80;99.90
23681;DHT22;62915;50.832;4.462;2023-02-11T06:33:39;7.80;99.90
23681;DHT22;62915;50.832;4.462;2023-02-11T06:36:18;7.80;99.90
23681;DHT22;62915;50.832;4.462;2023-02-11T06:38:44;7.90;99.90
23681;DHT22;62915;50.832;4.462;2023-02-11T06:41:12;8.00;99.90
23681;DHT22;62915;50.832;4.462;2023-02-11T06:43:39;7.90;99.90
23681;DHT22;62915;50.832;4.462;2023-02-11T06:46:06;7.80;99.90
23681;DHT22;62915;50.832;4.462;2023-02-11T06:48:32;7.80;99.90
23681;DHT22;62915;50.832;4.462;2023-02-11T06:51:04;7.80;99.90
23681;DHT22;62915;50.832;4.462;2023-02-11T06:53:30;7.80;99.90
23681;DHT22;62915;50.832;4.462;2023-02-11T06:56:03;7.80;99.90
23681;DHT22;62915;50.832;4.462;2023-02-11T06:58:30;7.80;99.90
23681;DHT22;62915;50.832;4.462;2023-02-11T07:00:56;7.80;99.90
23681;DHT22;62915;50.832;4.462;2023-02-11T07:03:22;8.00;99.90
23681;DHT22;62915;50.832;4.462;2023-02-11T07:05:48;8.00;99.90
23681;DHT22;62915;50.832;4.462;2023-02-11T07:08:14;8.00;99.90
23681;DHT22;62915;50.832;4.462;2023-02-11T07:10:39;8.00;99.90
23681;DHT22;62915;50.832;4.462;2023-02-11T07:13:05;8.00;99.90
23681;DHT22;62915;50.832;4.462;2023-02-11T07:15:31;8.00;99.90
23681;DHT22;62915;50.832;4.462;2023-02-11T07:17:57;8.10;99.90
23681;DHT22;62915;50.832;4.462;2023-02-11T07:20:22;8.00;99.90
23681;DHT22;62915;50.832;4.462;2023-02-11T07:22:48;8.10;99.90
23681;DHT22;62915;50.832;4.462;2023-02-11T07:25:14;8.10;99.90
23681;DHT22;62915;50.832;4.462;2023-02-11T07:27:40;8.10;99.90
23681;DHT22;62915;50.832;4.462;2023-02-11T07:30:06;8.10;99.90
23681;DHT22;62915;50.832;4.462;2023-02-11T07:32:32;8.00;99.90
23681;DHT22;62915;50.832;4.462;2023-02-11T07:34:57;8.00;99.90
23681;DHT22;62915;50.832;4.462;2023-02-11T07:37:23;7.90;99.90
23681;DHT22;62915;50.832;4.462;2023-02-11T07:39:49;8.10;99.90
23681;DHT22;62915;50.832;4.462;2023-02-11T07:42:14;8.20;99.90
23681;DHT22;62915;50.832;4.462;2023-02-11T07:44:40;8.10;99.90
23681;DHT22;62915;50.832;4.462;2023-02-11T07:47:06;8.20;99.90
23681;DHT22;62915;50.832;4.462;2023-02-11T07:49:31;8.20;99.90
23681;DHT22;62915;50.832;4.462;2023-02-11T07:51:57;8.20;99.90
23681;DHT22;62915;50.832;4.462;2023-02-11T07:54:23;8.20;99.90
23681;DHT22;62915;50.832;4.462;2023-02-11T07:56:49;8.30;99.90
23681;DHT22;62915;50.832;4.462;2023-02-11T07:59:14;8.30;99.90
23681;DHT22;62915;50.832;4.462;2023-02-11T08:01:40;8.20;99.90
23681;DHT22;62915;50.832;4.462;2023-02-11T08:04:06;8.20;99.90
23681;DHT22;62915;50.832;4.462;2023-02-11T08:06:33;8.20;99.90
23681;DHT22;62915;50.832;4.462;2023-02-11T08:09:04;8.10;99.90
23681;DHT22;62915;50.832;4.462;2023-02-11T08:11:30;8.20;99.90
23681;DHT22;62915;50.832;4.462;2023-02-11T08:13:56;8.10;99.90
23681;DHT22;62915;50.832;4.462;2023-02-11T08:16:25;8.10;99.90
23681;DHT22;62915;50.832;4.462;2023-02-11T08:18:51;8.10;99.90
23681;DHT22;62915;50.832;4.462;2023-02-11T08:21:19;8.10;99.90
23681;DHT22;62915;50.832;4.462;2023-02-11T08:23:44;8.20;99.90
23681;DHT22;62915;50.832;4.462;2023-02-11T08:26:16;8.10;99.90
23681;DHT22;62915;50.832;4.462;2023-02-11T08:28:43;8.30;99.90
23681;DHT22;62915;50.832;4.462;2023-02-11T08:31:15;8.30;99.90
23681;DHT22;62915;50.832;4.462;2023-02-11T08:33:41;8.20;99.90
23681;DHT22;62915;50.832;4.462;2023-02-11T08:36:09;8.20;99.90
23681;DHT22;62915;50.832;4.462;2023-02-11T08:38:36;8.20;99.90
23681;DHT22;62915;50.832;4.462;2023-02-11T08:41:02;8.10;99.90
23681;DHT22;62915;50.832;4.462;2023-02-11T08:43:28;8.10;99.90
23681;DHT22;62915;50.832;4.462;2023-02-11T08:45:53;8.20;99.90
23681;DHT22;62915;50.832;4.462;2023-02-11T08:48:19;8.20;99.90
23681;DHT22;62915;50.832;4.462;2023-02-11T08:50:45;8.30;99.90
23681;DHT22;62915;50.832;4.462;2023-02-11T08:53:10;8.30;99.90
23681;DHT22;62915;50.832;4.462;2023-02-11T08:55:36;8.30;99.90
23681;DHT22;62915;50.832;4.462;2023-02-11T08:58:02;8.30;99.90
23681;DHT22;62915;50.832;4.462;2023-02-11T09:00:28;8.40;99.90
23681;DHT22;62915;50.832;4.462;2023-02-11T09:02:53;8.20;99.90
23681;DHT22;62915;50.832;4.462;2023-02-11T09:05:19;8.30;99.90
23681;DHT22;62915;50.832;4.462;2023-02-11T09:07:46;8.30;99.90
23681;DHT22;62915;50.832;4.462;2023-02-11T09:10:12;8.40;99.90
23681;DHT22;62915;50.832;4.462;2023-02-11T09:12:38;8.40;99.90
23681;DHT22;62915;50.832;4.462;2023-02-11T09:15:04;8.30;99.90
23681;DHT22;62915;50.832;4.462;2023-02-11T09:17:29;8.30;99.90
23681;DHT22;62915;50.832;4.462;2023-02-11T09:19:55;8.40;99.90
23681;DHT22;62915;50.832;4.462;2023-02-11T09:22:21;8.40;99.90
23681;DHT22;62915;50.832;4.462;2023-02-11T09:24:46;8.30;99.90
23681;DHT22;62915;50.832;4.462;2023-02-11T09:27:12;8.40;99.90
23681;DHT22;62915;50.832;4.462;2023-02-11T09:29:38;8.50;99.90
23681;DHT22;62915;50.832;4.462;2023-02-11T09:32:03;8.40;99.90
23681;DHT22;62915;50.832;4.462;2023-02-11T09:34:29;8.40;99.90
23681;DHT22;62915;50.832;4.462;2023-02-11T09:36:55;8.40;99.90
23681;DHT22;62915;50.832;4.462;2023-02-11T09:39:20;8.50;99.90
23681;DHT22;62915;50.832;4.462;2023-02-11T09:44:34;8.50;99.90
23681;DHT22;62915;50.832;4.462;2023-02-11T09:47:03;8.50;99.90
23681;DHT22;62915;50.832;4.462;2023-02-11T09:49:41;8.50;99.90
23681;DHT22;62915;50.832;4.462;2023-02-11T09:52:50;8.60;99.90
23681;DHT22;62915;50.832;4.462;2023-02-11T09:55:26;8.60;99.90
23681;DHT22;62915;50.832;4.462;2023-02-11T09:57:54;8.50;99.90
23681;DHT22;62915;50.832;4.462;2023-02-11T10:00:32;8.60;99.90
23681;DHT22;62915;50.832;4.462;2023-02-11T10:12:08;8.70;99.90
23681;DHT22;62915;50.832;4.462;2023-02-11T10:22:51;8.70;99.90
23681;DHT22;62915;50.832;4.462;2023-02-11T10:25:27;8.70;99.90
23681;DHT22;62915;50.832;4.462;2023-02-11T10:27:56;8.60;99.90
23681;DHT22;62915;50.832;4.462;2023-02-11T10:30:32;8.70;99.90
23681;DHT22;62915;50.832;4.462;2023-02-11T10:35:29;8.90;99.90
23681;DHT22;62915;50.832;4.462;2023-02-11T10:37:56;8.70;99.90
23681;DHT22;62915;50.832;4.462;2023-02-11T10:40:24;8.80;99.90
23681;DHT22;62915;50.832;4.462;2023-02-11T10:42:59;8.90;99.90
23681;DHT22;62915;50.832;4.462;2023-02-11T10:48:37;9.00;99.90
23681;DHT22;62915;50.832;4.462;2023-02-11T10:53:43;9.00;99.90
23681;DHT22;62915;50.832;4.462;2023-02-11T10:56:13;9.00;99.90
23681;DHT22;62915;50.832;4.462;2023-02-11T11:06:55;8.90;99.90
23681;DHT22;62915;50.832;4.462;2023-02-11T11:10:04;8.90;99.90
23681;DHT22;62915;50.832;4.462;2023-02-11T11:15:01;9.10;99.90
23681;DHT22;62915;50.832;4.462;2023-02-11T11:17:27;9.10;99.90
23681;DHT22;62915;50.832;4.462;2023-02-11T11:22:41;9.00;99.90
23681;DHT22;62915;50.832;4.462;2023-02-11T11:25:28;9.10;99.90
23681;DHT22;62915;50.832;4.462;2023-02-11T11:27:57;9.10;99.90
23681;DHT22;62915;50.832;4.462;2023-02-11T11:30:30;9.10;99.90
23681;DHT22;62915;50.832;4.462;2023-02-11T11:32:57;9.10;99.90
23681;DHT22;62915;50.832;4.462;2023-02-11T11:35:26;9.20;99.90
23681;DHT22;62915;50.832;4.462;2023-02-11T11:37:56;9.20;99.90
23681;DHT22;62915;50.832;4.462;2023-02-11T11:40:26;9.10;99.90
23681;DHT22;62915;50.832;4.462;2023-02-11T11:45:37;9.20;99.90
23681;DHT22;62915;50.832;4.462;2023-02-11T11:48:28;9.30;99.90
23681;DHT22;62915;50.832;4.462;2023-02-11T11:51:01;9.20;99.90
23681;DHT22;62915;50.832;4.462;2023-02-11T11:56:23;9.10;99.90
23681;DHT22;62915;50.832;4.462;2023-02-11T11:58:50;9.20;99.90
23681;DHT22;62915;50.832;4.462;2023-02-11T12:32:26;9.40;99.90
23681;DHT22;62915;50.832;4.462;2023-02-11T12:43:36;9.40;99.90
23681;DHT22;62915;50.832;4.462;2023-02-11T12:46:29;9.40;99.90
23681;DHT22;62915;50.832;4.462;2023-02-11T12:56:57;9.60;99.90
23681;DHT22;62915;50.832;4.462;2023-02-11T13:02:29;9.50;99.90
23681;DHT22;62915;50.832;4.462;2023-02-11T13:07:46;9.50;99.90
23681;DHT22;62915;50.832;4.462;2023-02-11T13:10:34;9.50;99.90
23681;DHT22;62915;50.832;4.462;2023-02-11T13:13:04;9.50;99.90
23681;DHT22;62915;50.832;4.462;2023-02-11T13:15:54;9.60;99.90
23681;DHT22;62915;50.832;4.462;2023-02-11T13:18:33;9.60;99.90
23681;DHT22;62915;50.832;4.462;2023-02-11T13:23:51;9.70;99.90
23681;DHT22;62915;50.832;4.462;2023-02-11T13:31:38;9.50;99.90
23681;DHT22;62915;50.832;4.462;2023-02-11T13:34:26;9.50;99.90
23681;DHT22;62915;50.832;4.462;2023-02-11T13:40:00;9.60;99.90
23681;DHT22;62915;50.832;4.462;2023-02-11T13:42:27;9.60;99.90
23681;DHT22;62915;50.832;4.462;2023-02-11T13:44:53;9.70;99.90
23681;DHT22;62915;50.832;4.462;2023-02-11T13:47:29;9.60;99.90
23681;DHT22;62915;50.832;4.462;2023-02-11T13:49:57;9.70;99.90
23681;DHT22;62915;50.832;4.462;2023-02-11T13:52:34;9.70;99.90
23681;DHT22;62915;50.832;4.462;2023-02-11T13:57:38;9.50;99.90
23681;DHT22;62915;50.832;4.462;2023-02-11T14:03:22;9.70;99.90
23681;DHT22;62915;50.832;4.462;2023-02-11T14:11:47;9.70;99.90
23681;DHT22;62915;50.832;4.462;2023-02-11T14:14:34;9.80;99.90
23681;DHT22;62915;50.832;4.462;2023-02-11T14:17:26;9.70;99.90
23681;DHT22;62915;50.832;4.462;2023-02-11T14:19:52;9.80;99.90
23681;DHT22;62915;50.832;4.462;2023-02-11T14:22:30;9.80;99.90
23681;DHT22;62915;50.832;4.462;2023-02-11T14:25:23;9.80;99.90
23681;DHT22;62915;50.832;4.462;2023-02-11T14:31:11;9.90;99.90
23681;DHT22;62915;50.832;4.462;2023-02-11T14:42:05;9.90;99.90
23681;DHT22;62915;50.832;4.462;2023-02-11T14:44:38;9.90;99.90
23681;DHT22;62915;50.832;4.462;2023-02-11T14:47:04;9.90;99.90
23681;DHT22;62915;50.832;4.462;2023-02-11T14:49:34;10.00;99.90
23681;DHT22;62915;50.832;4.462;2023-02-11T14:54:47;10.10;99.90
23681;DHT22;62915;50.832;4.462;2023-02-11T14:57:16;10.10;99.90
23681;DHT22;62915;50.832;4.462;2023-02-11T15:00:00;10.10;99.90
23681;DHT22;62915;50.832;4.462;2023-02-11T15:02:45;10.10;99.90
23681;DHT22;62915;50.832;4.462;2023-02-11T15:05:22;10.00;99.90
23681;DHT22;62915;50.832;4.462;2023-02-11T15:08:13;9.90;99.90
23681;DHT22;62915;50.832;4.462;2023-02-11T15:10:43;10.00;99.90
23681;DHT22;62915;50.832;4.462;2023-02-11T15:13:19;10.00;99.90
23681;DHT22;62915;50.832;4.462;2023-02-11T15:15:47;10.00;99.90
23681;DHT22;62915;50.832;4.462;2023-02-11T15:18:20;10.00;99.90
23681;DHT22;62915;50.832;4.462;2023-02-11T15:20:48;10.10;99.90
23681;DHT22;62915;50.832;4.462;2023-02-11T15:23:22;10.10;99.90
23681;DHT22;62915;50.832;4.462;2023-02-11T15:25:49;10.10;99.90
23681;DHT22;62915;50.832;4.462;2023-02-11T15:28:28;10.10;99.90
23681;DHT22;62915;50.832;4.462;2023-02-11T15:31:03;10.10;99.90
23681;DHT22;62915;50.832;4.462;2023-02-11T15:33:30;10.00;99.90
23681;DHT22;62915;50.832;4.462;2023-02-11T15:35:58;10.00;99.90
23681;DHT22;62915;50.832;4.462;2023-02-11T15:38:24;10.00;99.90
23681;DHT22;62915;50.832;4.462;2023-02-11T15:41:00;10.00;99.90
23681;DHT22;62915;50.832;4.462;2023-02-11T15:46:09;10.00;99.90
23681;DHT22;62915;50.832;4.462;2023-02-11T15:48:52;10.00;99.90
23681;DHT22;62915;50.832;4.462;2023-02-11T15:51:32;10.10;99.90
23681;DHT22;62915;50.832;4.462;2023-02-11T15:54:05;10.10;99.90
23681;DHT22;62915;50.832;4.462;2023-02-11T15:56:40;10.00;99.90
23681;DHT22;62915;50.832;4.462;2023-02-11T15:59:36;10.10;99.90
23681;DHT22;62915;50.832;4.462;2023-02-11T16:02:28;10.10;99.90
23681;DHT22;62915;50.832;4.462;2023-02-11T16:05:04;10.20;99.90
23681;DHT22;62915;50.832;4.462;2023-02-11T16:07:59;10.10;99.90
23681;DHT22;62915;50.832;4.462;2023-02-11T16:10:32;10.10;99.90
23681;DHT22;62915;50.832;4.462;2023-02-11T16:15:44;10.20;99.90
23681;DHT22;62915;50.832;4.462;2023-02-11T16:20:54;10.20;99.90
23681;DHT22;62915;50.832;4.462;2023-02-11T16:23:24;10.20;99.90
23681;DHT22;62915;50.832;4.462;2023-02-11T16:25:56;10.30;99.90
23681;DHT22;62915;50.832;4.462;2023-02-11T16:28:22;10.30;99.90
23681;DHT22;62915;50.832;4.462;2023-02-11T16:30:52;10.30;99.90
23681;DHT22;62915;50.832;4.462;2023-02-11T16:33:18;10.30;99.90
23681;DHT22;62915;50.832;4.462;2023-02-11T16:35:44;10.20;99.90
23681;DHT22;62915;50.832;4.462;2023-02-11T16:38:12;10.20;99.90
23681;DHT22;62915;50.832;4.462;2023-02-11T16:40:39;10.20;99.90
23681;DHT22;62915;50.832;4.462;2023-02-11T16:43:05;10.10;99.90
23681;DHT22;62915;50.832;4.462;2023-02-11T16:45:31;10.10;99.90
23681;DHT22;62915;50.832;4.462;2023-02-11T16:47:59;10.20;99.90
23681;DHT22;62915;50.832;4.462;2023-02-11T16:50:26;10.20;99.90
23681;DHT22;62915;50.832;4.462;2023-02-11T16:52:52;10.20;99.90
23681;DHT22;62915;50.832;4.462;2023-02-11T16:55:18;10.10;99.90
23681;DHT22;62915;50.832;4.462;2023-02-11T16:57:44;10.10;99.90
23681;DHT22;62915;50.832;4.462;2023-02-11T17:00:10;10.00;99.90
23681;DHT22;62915;50.832;4.462;2023-02-11T17:02:40;10.10;99.90
23681;DHT22;62915;50.832;4.462;2023-02-11T17:05:10;10.20;99.90
23681;DHT22;62915;50.832;4.462;2023-02-11T17:07:39;10.20;99.90
23681;DHT22;62915;50.832;4.462;2023-02-11T17:10:19;10.10;99.90
23681;DHT22;62915;50.832;4.462;2023-02-11T17:12:46;10.20;99.90
23681;DHT22;62915;50.832;4.462;2023-02-11T17:15:12;10.20;99.90
23681;DHT22;62915;50.832;4.462;2023-02-11T17:17:38;10.20;99.90
23681;DHT22;62915;50.832;4.462;2023-02-11T17:20:04;10.20;99.90
23681;DHT22;62915;50.832;4.462;2023-02-11T17:22:31;10.20;99.90
23681;DHT22;62915;50.832;4.462;2023-02-11T17:24:57;10.20;99.90
23681;DHT22;62915;50.832;4.462;2023-02-11T17:27:23;10.20;99.90
23681;DHT22;62915;50.832;4.462;2023-02-11T17:29:49;10.20;99.90
23681;DHT22;62915;50.832;4.462;2023-02-11T17:32:15;10.20;99.90
23681;DHT22;62915;50.832;4.462;2023-02-11T17:34:40;10.30;99.90
23681;DHT22;62915;50.832;4.462;2023-02-11T17:37:06;10.20;99.90
23681;DHT22;62915;50.832;4.462;2023-02-11T17:39:38;10.20;99.90
23681;DHT22;62915;50.832;4.462;2023-02-11T17:42:05;10.20;99.90
23681;DHT22;62915;50.832;4.462;2023-02-11T17:44:32;10.10;99.90
23681;DHT22;62915;50.832;4.462;2023-02-11T17:46:57;10.00;99.90
23681;DHT22;62915;50.832;4.462;2023-02-11T17:49:23;10.10;99.90
23681;DHT22;62915;50.832;4.462;2023-02-11T17:51:49;10.20;99.90
23681;DHT22;62915;50.832;4.462;2023-02-11T17:54:17;10.20;99.90
23681;DHT22;62915;50.832;4.462;2023-02-11T17:56:43;10.20;99.90
23681;DHT22;62915;50.832;4.462;2023-02-11T17:59:11;10.20;99.90
23681;DHT22;62915;50.832;4.462;2023-02-11T18:01:38;10.20;99.90
23681;DHT22;62915;50.832;4.462;2023-02-11T18:04:06;10.20;99.90
23681;DHT22;62915;50.832;4.462;2023-02-11T18:06:32;10.20;99.90
23681;DHT22;62915;50.832;4.462;2023-02-11T18:09:01;10.20;99.90
23681;DHT22;62915;50.832;4.462;2023-02-11T18:11:30;10.20;99.90
23681;DHT22;62915;50.832;4.462;2023-02-11T18:14:00;10.10;99.90
23681;DHT22;62915;50.832;4.462;2023-02-11T18:16:26;10.20;99.90
23681;DHT22;62915;50.832;4.462;2023-02-11T18:18:54;10.20;99.90
23681;DHT22;62915;50.832;4.462;2023-02-11T18:21:21;10.10;99.90
23681;DHT22;62915;50.832;4.462;2023-02-11T18:23:47;10.20;99.90
23681;DHT22;62915;50.832;4.462;2023-02-11T18:26:15;10.20;99.90
23681;DHT22;62915;50.832;4.462;2023-02-11T18:28:41;10.10;99.90
23681;DHT22;62915;50.832;4.462;2023-02-11T18:31:08;10.10;99.90
23681;DHT22;62915;50.832;4.462;2023-02-11T18:33:35;10.00;99.90
23681;DHT22;62915;50.832;4.462;2023-02-11T18:36:10;10.10;99.90
23681;DHT22;62915;50.832;4.462;2023-02-11T18:38:37;10.00;99.90
23681;DHT22;62915;50.832;4.462;2023-02-11T18:41:03;10.10;99.90
23681;DHT22;62915;50.832;4.462;2023-02-11T18:43:29;10.10;99.90